Time;durP1;ratioP1;P1;durP2;ratioP2;P2;SDS_P1;SDS_P2;PMS_P1;PMS_P2;Temp;Humidity;BMP_temperature;BMP_pressure;BME280_temperature;BME280_humidity;BME280_pressure;Samples;Min_cycle;Max_cycle;Signal;HPM_P1;HPM_P2
2024/04/03 00:00:15;;;;;;;;;;;;;;;13.04;72.11;100302.28;5031241;28;19924;-89
2024/04/03 00:02:40;;;;;;;;;;;;;;;13.03;72.48;100298.78;5030050;28;19924;-90
2024/04/03 00:05:05;;;;;;;;;;;;;;;13.00;72.94;100304.72;5029441;28;19948;-89
2024/04/03 00:07:30;;;;;;;;;;;;;;;13.01;72.42;100299.06;5031040;28;20011;-89
2024/04/03 00:09:57;;;;;;;;;;;;;;;12.99;72.85;100297.72;5026660;28;20497;-89
2024/04/03 00:12:22;;;;;;;;;;;;;;;12.97;72.96;100289.94;5025267;28;20354;-89
2024/04/03 00:14:47;;;;;;;;;;;;;;;12.98;72.65;100282.66;5029153;28;19927;-90
2024/04/03 00:17:12;;;;;;;;;;;;;;;12.97;73.05;100295.31;5028527;28;19917;-90
2024/04/03 00:19:38;;;;;;;;;;;;;;;13.00;73.12;100284.00;5027736;28;19921;-90
2024/04/03 00:22:03;;;;;;;;;;;;;;;12.97;73.84;100284.56;5025975;28;19922;-88
2024/04/03 00:24:28;;;;;;;;;;;;;;;12.97;73.62;100286.44;5026251;28;19917;-89
2024/04/03 00:26:53;;;;;;;;;;;;;;;13.00;73.84;100286.69;5029574;28;20385;-88
2024/04/03 00:29:18;;;;;;;;;;;;;;;13.01;74.12;100282.91;5025117;28;19936;-89
2024/04/03 00:31:45;;;;;;;;;;;;;;;13.00;73.87;100283.19;5028812;28;19932;-91
2024/04/03 00:34:10;;;;;;;;;;;;;;;13.02;73.69;100272.97;5027701;28;19918;-90
2024/04/03 00:36:35;;;;;;;;;;;;;;;13.02;74.10;100279.16;5029250;28;19925;-89
2024/04/03 00:39:00;;;;;;;;;;;;;;;13.03;74.33;100277.25;5026211;28;20479;-90
2024/04/03 00:41:29;;;;;;;;;;;;;;;13.06;74.09;100270.53;5026150;28;19975;-90
2024/04/03 00:43:54;;;;;;;;;;;;;;;13.08;74.13;100274.53;5026409;28;19921;-89
2024/04/03 00:46:20;;;;;;;;;;;;;;;13.09;73.83;100280.72;5027431;28;19917;-90
2024/04/03 00:48:45;;;;;;;;;;;;;;;13.06;74.11;100274.00;5027728;28;19975;-89
2024/04/03 00:51:11;;;;;;;;;;;;;;;13.07;74.24;100278.31;5023675;28;19924;-90
2024/04/03 00:53:39;;;;;;;;;;;;;;;13.09;74.13;100280.72;5024870;28;20297;-89
2024/04/03 00:56:07;;;;;;;;;;;;;;;13.09;74.03;100268.09;5028036;28;19967;-89
2024/04/03 00:58:33;;;;;;;;;;;;;;;13.07;75.14;100278.31;5031652;28;19921;-90
2024/04/03 01:00:58;;;;;;;;;;;;;;;13.09;74.29;100264.59;5031411;28;19996;-90
2024/04/03 01:03:24;;;;;;;;;;;;;;;13.09;74.17;100262.69;5031868;28;20405;-90
2024/04/03 01:05:57;;;;;;;;;;;;;;;13.13;73.90;100276.44;5032073;28;20047;-89
2024/04/03 01:08:22;;;;;;;;;;;;;;;13.14;74.23;100278.03;5028181;28;19921;-90
2024/04/03 01:10:48;;;;;;;;;;;;;;;13.14;73.86;100268.09;5033517;28;19917;-89
2024/04/03 01:13:13;;;;;;;;;;;;;;;13.15;73.85;100266.19;5031713;28;19917;-90
2024/04/03 01:15:38;;;;;;;;;;;;;;;13.12;74.06;100270.25;5031127;28;19941;-90
2024/04/03 01:18:03;;;;;;;;;;;;;;;13.14;74.39;100265.38;5031547;28;20384;-88
2024/04/03 01:20:29;;;;;;;;;;;;;;;13.17;74.35;100264.03;5030256;28;19979;-89
2024/04/03 01:22:54;;;;;;;;;;;;;;;13.17;74.20;100264.03;5033138;28;19972;-90
2024/04/03 01:25:19;;;;;;;;;;;;;;;13.15;74.21;100264.31;5030702;28;19917;-91
2024/04/03 01:27:44;;;;;;;;;;;;;;;13.13;74.49;100266.47;5030398;28;19925;-90
2024/04/03 01:30:10;;;;;;;;;;;;;;;13.13;74.54;100265.66;5030159;28;19933;-89
2024/04/03 01:32:35;;;;;;;;;;;;;;;13.15;74.24;100271.56;5030762;28;19917;-90
2024/04/03 01:35:01;;;;;;;;;;;;;;;13.13;74.33;100260.28;5031271;28;19920;-90
2024/04/03 01:37:26;;;;;;;;;;;;;;;13.14;74.55;100261.91;5031306;28;19975;-90
2024/04/03 01:39:51;;;;;;;;;;;;;;;13.15;74.90;100268.88;5028114;28;19928;-90
2024/04/03 01:42:17;;;;;;;;;;;;;;;13.13;75.22;100268.34;5031119;28;19936;-90
2024/04/03 01:44:42;;;;;;;;;;;;;;;13.13;74.60;100271.84;5030642;28;19917;-90
2024/04/03 01:47:08;;;;;;;;;;;;;;;13.14;74.46;100264.59;5029655;28;20028;-90
2024/04/03 01:49:33;;;;;;;;;;;;;;;13.12;74.80;100275.63;5026304;28;19963;-90
2024/04/03 01:51:58;;;;;;;;;;;;;;;13.13;74.56;100269.16;5029199;28;19932;-90
2024/04/03 01:54:23;;;;;;;;;;;;;;;13.14;74.91;100264.59;5028462;28;19917;-90
2024/04/03 01:56:49;;;;;;;;;;;;;;;13.16;74.98;100265.09;5028707;28;19920;-90
2024/04/03 01:59:14;;;;;;;;;;;;;;;13.17;74.95;100269.41;5028513;28;19933;-89
2024/04/03 02:01:39;;;;;;;;;;;;;;;13.20;74.83;100271.56;5024138;28;19929;-90
2024/04/03 02:04:05;;;;;;;;;;;;;;;13.22;74.75;100280.16;5024342;28;20405;-90
2024/04/03 02:06:30;;;;;;;;;;;;;;;13.23;74.49;100271.81;5030131;28;20412;-89
2024/04/03 02:08:55;;;;;;;;;;;;;;;13.22;74.21;100272.09;5027900;28;19924;-90
2024/04/03 02:11:21;;;;;;;;;;;;;;;13.18;74.96;100276.44;5029635;28;19956;-89
2024/04/03 02:13:46;;;;;;;;;;;;;;;13.17;74.93;100267.53;5029732;28;19956;-90
2024/04/03 02:16:11;;;;;;;;;;;;;;;13.18;75.39;100268.34;5030734;28;19925;-90
2024/04/03 02:18:36;;;;;;;;;;;;;;;13.19;74.90;100260.00;5030744;28;20404;-91
2024/04/03 02:21:01;;;;;;;;;;;;;;;13.22;75.17;100269.41;5029755;28;19921;-89
2024/04/03 02:23:27;;;;;;;;;;;;;;;13.23;74.79;100268.31;5027192;28;19971;-91
2024/04/03 02:25:52;;;;;;;;;;;;;;;13.23;74.81;100269.13;5031241;28;19917;-90
2024/04/03 02:28:17;;;;;;;;;;;;;;;13.24;74.63;100273.41;5031905;28;19959;-90
2024/04/03 02:30:42;;;;;;;;;;;;;;;13.24;74.74;100275.31;5029407;28;19917;-90
2024/04/03 02:33:07;;;;;;;;;;;;;;;13.20;74.78;100266.19;5027693;28;19932;-90
2024/04/03 02:35:33;;;;;;;;;;;;;;;13.17;75.15;100261.34;5029683;28;19967;-90
2024/04/03 02:37:58;;;;;;;;;;;;;;;13.17;75.05;100266.72;5030087;28;19963;-90
2024/04/03 02:40:23;;;;;;;;;;;;;;;13.20;75.09;100267.00;5027458;28;20042;-90
2024/04/03 02:42:48;;;;;;;;;;;;;;;13.23;75.15;100268.31;5030883;28;19917;-89
2024/04/03 02:45:13;;;;;;;;;;;;;;;13.24;75.17;100278.81;5030039;28;20140;-89
2024/04/03 02:47:39;;;;;;;;;;;;;;;13.26;74.83;100270.44;5029178;28;19969;-89
2024/04/03 02:50:04;;;;;;;;;;;;;;;13.24;75.43;100272.63;5030751;28;19943;-89
2024/04/03 02:52:29;;;;;;;;;;;;;;;13.24;75.50;100275.31;5027021;28;19924;-90
2024/04/03 02:54:54;;;;;;;;;;;;;;;13.24;75.68;100278.81;5032480;28;19917;-90
2024/04/03 02:57:20;;;;;;;;;;;;;;;13.27;75.39;100288.19;5029904;28;19921;-90
2024/04/03 02:59:45;;;;;;;;;;;;;;;13.21;76.58;100310.84;5027887;28;20644;-90
2024/04/03 03:02:10;;;;;;;;;;;;;;;13.14;76.49;100304.94;5029175;28;20006;-91
2024/04/03 03:04:42;;;;;;;;;;;;;;;13.10;76.32;100304.66;5027360;28;20020;-90
2024/04/03 03:07:10;;;;;;;;;;;;;;;13.06;76.44;100297.41;5028115;28;19925;-89
2024/04/03 03:09:36;;;;;;;;;;;;;;;13.01;76.25;100312.50;5030581;28;19917;-89
2024/04/03 03:12:02;;;;;;;;;;;;;;;12.98;76.55;100315.75;5030566;28;20654;-89
2024/04/03 03:14:27;;;;;;;;;;;;;;;12.95;76.30;100321.69;5025595;28;20401;-89
2024/04/03 03:16:52;;;;;;;;;;;;;;;12.91;76.63;100317.91;5024950;28;19925;-89
2024/04/03 03:19:17;;;;;;;;;;;;;;;12.89;76.58;100320.06;5026425;28;19925;-90
2024/04/03 03:21:42;;;;;;;;;;;;;;;12.85;76.14;100321.69;5027926;28;19929;-90
2024/04/03 03:24:08;;;;;;;;;;;;;;;12.81;76.19;100326.00;5030053;28;19924;-89
2024/04/03 03:26:33;;;;;;;;;;;;;;;12.76;76.16;100326.03;5028534;28;19923;-90
2024/04/03 03:28:58;;;;;;;;;;;;;;;12.72;77.03;100319.56;5029621;28;19925;-88
2024/04/03 03:31:23;;;;;;;;;;;;;;;12.67;76.77;100331.16;5029327;28;19921;-88
2024/04/03 03:33:49;;;;;;;;;;;;;;;12.63;76.63;100330.09;5028324;28;20015;-90
2024/04/03 03:36:14;;;;;;;;;;;;;;;12.61;76.76;100324.19;5029831;28;20004;-88
2024/04/03 03:38:39;;;;;;;;;;;;;;;12.59;76.72;100323.66;5027798;28;20373;-90
2024/04/03 03:41:04;;;;;;;;;;;;;;;12.59;76.66;100329.03;5027561;28;20503;-89
2024/04/03 03:43:29;;;;;;;;;;;;;;;12.60;76.73;100327.94;5029979;28;19925;-88
2024/04/03 03:45:55;;;;;;;;;;;;;;;12.59;76.79;100336.28;5030276;28;19917;-89
2024/04/03 03:52:35;;;;;;;;;;;;;;;12.54;77.33;100338.94;5028857;28;19932;-88
2024/04/03 03:53:59;;;;;;;;;;;;;;;12.49;77.68;100353.19;5030093;28;20984;-89
2024/04/03 03:56:25;;;;;;;;;;;;;;;12.50;77.21;100357.50;5026038;28;19929;-88
2024/04/03 03:58:50;;;;;;;;;;;;;;;12.48;77.05;100364.22;5025470;28;20011;-89
2024/04/03 04:01:16;;;;;;;;;;;;;;;12.46;77.10;100363.69;5025954;28;20374;-89
2024/04/03 04:03:41;;;;;;;;;;;;;;;12.43;77.15;100374.97;5026154;28;19960;-87
2024/04/03 04:06:06;;;;;;;;;;;;;;;12.41;76.61;100372.56;5027670;28;19921;-89
2024/04/03 04:08:31;;;;;;;;;;;;;;;12.37;76.99;100377.66;5025587;28;19920;-87
2024/04/03 04:10:58;;;;;;;;;;;;;;;12.36;76.48;100373.34;5026166;28;19925;-89
2024/04/03 04:13:23;;;;;;;;;;;;;;;12.36;76.55;100385.97;5026081;28;19925;-89
2024/04/03 04:15:48;;;;;;;;;;;;;;;12.33;76.14;100381.94;5026654;28;19921;-89
2024/04/03 04:18:14;;;;;;;;;;;;;;;12.28;75.87;100389.22;5025636;28;20064;-89
2024/04/03 04:20:40;;;;;;;;;;;;;;;12.20;76.00;100393.22;5023561;28;19925;-88
2024/04/03 04:23:05;;;;;;;;;;;;;;;12.17;76.43;100399.13;5024516;28;19917;-89
2024/04/03 04:25:30;;;;;;;;;;;;;;;12.18;76.07;100399.94;5020904;28;19921;-90
2024/04/03 04:27:55;;;;;;;;;;;;;;;12.15;75.35;100403.16;5025325;28;19928;-89
2024/04/03 04:30:20;;;;;;;;;;;;;;;12.12;74.88;100419.81;5024708;28;19917;-89
2024/04/03 04:32:46;;;;;;;;;;;;;;;12.02;74.16;100417.91;5030332;28;19932;-89
2024/04/03 04:35:11;;;;;;;;;;;;;;;11.91;73.80;100433.19;5032912;28;19928;-89
2024/04/03 04:37:36;;;;;;;;;;;;;;;11.80;73.86;100437.72;5031795;28;19931;-90
2024/04/03 04:40:02;;;;;;;;;;;;;;;11.71;73.60;100444.63;5031055;28;19928;-89
2024/04/03 04:42:28;;;;;;;;;;;;;;;11.61;73.65;100444.59;5029226;28;19925;-87
2024/04/03 04:44:53;;;;;;;;;;;;;;;11.53;73.90;100449.66;5031208;28;20467;-88
2024/04/03 04:47:18;;;;;;;;;;;;;;;11.45;74.10;100457.13;5027965;28;20343;-89
2024/04/03 04:49:43;;;;;;;;;;;;;;;11.44;74.09;100460.06;5030105;28;20018;-88
2024/04/03 04:52:09;;;;;;;;;;;;;;;11.42;73.75;100463.00;5030932;28;20129;-88
2024/04/03 04:54:34;;;;;;;;;;;;;;;11.41;73.87;100461.41;5030221;28;19987;-87
2024/04/03 04:57:01;;;;;;;;;;;;;;;11.35;73.26;100467.00;5028943;28;20050;-88
2024/04/03 04:59:26;;;;;;;;;;;;;;;11.28;73.40;100469.88;5030473;28;19920;-88
2024/04/03 05:01:52;;;;;;;;;;;;;;;11.22;72.99;100472.81;5028108;28;19937;-88
2024/04/03 05:04:17;;;;;;;;;;;;;;;11.10;72.99;100475.69;5028391;28;19928;-88
2024/04/03 05:06:42;;;;;;;;;;;;;;;11.01;73.06;100474.56;5027628;28;19921;-88
2024/04/03 05:09:08;;;;;;;;;;;;;;;10.96;73.68;100475.34;5029525;28;19921;-88
2024/04/03 05:11:33;;;;;;;;;;;;;;;10.87;73.37;100466.13;5026188;28;19960;-88
2024/04/03 05:13:59;;;;;;;;;;;;;;;10.79;73.88;100475.47;5027938;28;19917;-89
2024/04/03 05:16:24;;;;;;;;;;;;;;;10.69;73.95;100474.56;5029055;28;20382;-89
2024/04/03 05:18:50;;;;;;;;;;;;;;;10.63;73.55;100484.44;5030823;28;19928;-89
2024/04/03 05:21:17;;;;;;;;;;;;;;;10.57;73.17;100488.94;5029114;28;19921;-89
2024/04/03 05:23:48;;;;;;;;;;;;;;;10.58;72.81;100493.22;5030684;28;19921;-89
2024/04/03 05:26:14;;;;;;;;;;;;;;;10.53;72.35;100501.22;5030287;28;19955;-89
2024/04/03 05:28:39;;;;;;;;;;;;;;;10.50;72.41;100496.38;5031531;28;20333;-89
2024/04/03 05:31:11;;;;;;;;;;;;;;;10.45;72.07;100492.84;5027333;28;19964;-89
2024/04/03 05:33:37;;;;;;;;;;;;;;;10.43;72.02;100501.13;5027750;28;19924;-88
2024/04/03 05:36:04;;;;;;;;;;;;;;;10.39;71.20;100513.38;5030140;28;19921;-89
2024/04/03 05:38:29;;;;;;;;;;;;;;;10.39;71.00;100510.72;5028131;28;20506;-88
2024/04/03 05:40:55;;;;;;;;;;;;;;;10.36;71.02;100511.22;5030087;28;19929;-88
2024/04/03 05:43:21;;;;;;;;;;;;;;;10.32;70.97;100510.13;5029960;28;20906;-88
2024/04/03 05:45:47;;;;;;;;;;;;;;;10.33;71.35;100519.75;5027620;28;19917;-89
2024/04/03 05:48:12;;;;;;;;;;;;;;;10.29;71.15;100510.63;5028111;28;19925;-88
2024/04/03 05:50:38;;;;;;;;;;;;;;;10.25;70.83;100513.00;5027144;28;19979;-88
2024/04/03 05:53:03;;;;;;;;;;;;;;;10.22;71.24;100513.47;5031433;28;19925;-87
2024/04/03 05:55:29;;;;;;;;;;;;;;;10.22;70.94;100520.69;5028434;28;20376;-89
2024/04/03 05:57:54;;;;;;;;;;;;;;;10.23;70.60;100523.16;5031054;28;19964;-89
2024/04/03 06:00:19;;;;;;;;;;;;;;;10.25;70.44;100529.06;5027628;28;19979;-88
2024/04/03 06:02:44;;;;;;;;;;;;;;;10.20;69.70;100531.63;5028472;28;20010;-88
2024/04/03 06:05:10;;;;;;;;;;;;;;;10.19;70.17;100529.22;5028375;28;19917;-88
2024/04/03 06:07:35;;;;;;;;;;;;;;;10.19;70.01;100531.88;5034185;28;19928;-89
2024/04/03 06:10:01;;;;;;;;;;;;;;;10.16;69.94;100538.56;5031140;28;20377;-89
2024/04/03 06:12:26;;;;;;;;;;;;;;;10.17;70.13;100547.41;5028798;28;20411;-91
2024/04/03 06:14:51;;;;;;;;;;;;;;;10.18;70.22;100543.66;5031947;28;19927;-89
2024/04/03 06:17:16;;;;;;;;;;;;;;;10.22;70.38;100545.59;5031183;28;19940;-87
2024/04/03 06:19:42;;;;;;;;;;;;;;;10.23;69.64;100547.25;5030123;28;20447;-89
2024/04/03 06:22:07;;;;;;;;;;;;;;;10.22;69.65;100550.97;5032483;28;19925;-89
2024/04/03 06:24:32;;;;;;;;;;;;;;;10.24;69.03;100550.75;5031952;28;19917;-90
2024/04/03 06:26:57;;;;;;;;;;;;;;;10.21;69.33;100548.53;5029932;28;19928;-89
2024/04/03 06:29:22;;;;;;;;;;;;;;;10.15;69.65;100552.19;5029879;28;19917;-87
2024/04/03 06:31:49;;;;;;;;;;;;;;;10.16;69.07;100559.16;5026338;28;20391;-88
2024/04/03 06:34:14;;;;;;;;;;;;;;;10.16;69.21;100549.25;5031857;28;19939;-86
2024/04/03 06:36:39;;;;;;;;;;;;;;;10.16;69.06;100561.84;5027147;28;20382;-88
2024/04/03 06:39:06;;;;;;;;;;;;;;;10.21;69.20;100569.94;5028023;28;20400;-88
2024/04/03 06:41:31;;;;;;;;;;;;;;;10.26;69.43;100562.00;5030930;28;19971;-88
2024/04/03 06:43:56;;;;;;;;;;;;;;;10.33;68.88;100567.16;5030233;28;19952;-88
2024/04/03 06:46:21;;;;;;;;;;;;;;;10.39;68.19;100575.00;5026718;28;19917;-88
2024/04/03 06:48:47;;;;;;;;;;;;;;;10.35;67.43;100575.75;5030613;28;19979;-90
2024/04/03 06:51:12;;;;;;;;;;;;;;;10.26;67.58;100584.22;5030027;28;19917;-88
2024/04/03 06:53:38;;;;;;;;;;;;;;;10.26;67.75;100583.44;5025983;28;20496;-89
2024/04/03 06:56:03;;;;;;;;;;;;;;;10.26;67.89;100586.09;5031125;28;20440;-90
2024/04/03 06:58:36;;;;;;;;;;;;;;;10.25;67.40;100587.97;5030320;28;19932;-89
2024/04/03 07:01:02;;;;;;;;;;;;;;;10.27;67.88;100585.84;5028805;28;19929;-87
2024/04/03 07:03:29;;;;;;;;;;;;;;;10.31;67.67;100596.88;5026084;28;19917;-90
2024/04/03 07:05:54;;;;;;;;;;;;;;;10.33;67.07;100596.63;5031078;28;19925;-89
2024/04/03 07:08:19;;;;;;;;;;;;;;;10.29;66.79;100601.66;5031037;28;19924;-89
2024/04/03 07:10:45;;;;;;;;;;;;;;;10.27;66.72;100607.28;5028724;28;19922;-89
2024/04/03 07:13:10;;;;;;;;;;;;;;;10.14;65.47;100604.94;5030145;28;19917;-89
2024/04/03 07:15:35;;;;;;;;;;;;;;;10.09;64.63;100599.53;5029468;28;19924;-89
2024/04/03 07:18:00;;;;;;;;;;;;;;;10.10;65.52;100600.31;5032185;28;19918;-88
2024/04/03 07:20:28;;;;;;;;;;;;;;;10.06;64.62;100610.72;5030379;28;19917;-90
2024/04/03 07:22:54;;;;;;;;;;;;;;;10.08;64.40;100613.16;5032509;28;19921;-88
2024/04/03 07:25:20;;;;;;;;;;;;;;;10.14;64.27;100614.81;5029053;28;19917;-90
2024/04/03 07:27:45;;;;;;;;;;;;;;;10.24;64.50;100623.03;5025788;28;20003;-90
2024/04/03 07:30:11;;;;;;;;;;;;;;;10.43;64.20;100618.97;5028408;28;19917;-89
2024/04/03 07:32:36;;;;;;;;;;;;;;;10.62;63.25;100616.78;5028247;28;19921;-90
2024/04/03 07:35:02;;;;;;;;;;;;;;;10.71;60.57;100615.25;5023348;28;20342;-91
2024/04/03 07:37:27;;;;;;;;;;;;;;;10.83;62.29;100613.25;5030622;28;20556;-90
2024/04/03 07:39:52;;;;;;;;;;;;;;;10.93;59.80;100625.13;5028164;28;19999;-84
2024/04/03 07:42:17;;;;;;;;;;;;;;;11.06;61.02;100624.72;5017534;28;19982;-83
2024/04/03 07:44:43;;;;;;;;;;;;;;;11.17;60.99;100621.88;5021447;28;19932;-86
2024/04/03 07:47:08;;;;;;;;;;;;;;;11.24;61.00;100626.22;5023312;28;20262;-84
2024/04/03 07:49:33;;;;;;;;;;;;;;;11.29;61.37;100623.56;5026818;28;19924;-89
2024/04/03 07:51:59;;;;;;;;;;;;;;;11.38;60.44;100635.47;5028907;28;19924;-87
2024/04/03 07:54:25;;;;;;;;;;;;;;;11.47;60.43;100631.22;5029861;28;19917;-89
2024/04/03 07:56:50;;;;;;;;;;;;;;;11.55;59.02;100643.38;5027321;28;19925;-91
2024/04/03 07:59:16;;;;;;;;;;;;;;;11.64;60.05;100645.31;5026077;28;19924;-89
2024/04/03 08:01:41;;;;;;;;;;;;;;;11.68;59.47;100643.75;5023031;28;19921;-91
2024/04/03 08:04:06;;;;;;;;;;;;;;;11.63;58.76;100651.75;5028586;28;19925;-89
2024/04/03 08:06:31;;;;;;;;;;;;;;;11.64;58.84;100658.75;5024632;28;19932;-90
2024/04/03 08:08:57;;;;;;;;;;;;;;;11.67;59.57;100658.25;5028889;28;19940;-93
2024/04/03 08:11:22;;;;;;;;;;;;;;;11.72;59.72;100668.22;5029155;28;20358;-94
2024/04/03 08:13:47;;;;;;;;;;;;;;;11.65;58.23;100671.09;5028661;28;20404;-91
2024/04/03 08:16:12;;;;;;;;;;;;;;;11.61;57.59;100670.00;5023443;28;20343;-88
2024/04/03 08:18:38;;;;;;;;;;;;;;;11.59;56.25;100682.84;5027887;28;19917;-91
2024/04/03 08:21:06;;;;;;;;;;;;;;;11.57;56.20;100676.13;5027041;28;19921;-91
2024/04/03 08:23:32;;;;;;;;;;;;;;;11.64;58.56;100679.41;5026598;28;19936;-90
2024/04/03 08:26:05;;;;;;;;;;;;;;;11.70;57.96;100687.25;5026450;28;19917;-90
2024/04/03 08:28:31;;;;;;;;;;;;;;;11.78;58.35;100688.63;5025324;28;19924;-94
2024/04/03 08:30:56;;;;;;;;;;;;;;;11.94;57.76;100689.59;5027929;28;19917;-91
2024/04/03 08:33:21;;;;;;;;;;;;;;;12.16;58.12;100703.69;5031156;28;19921;-94
2024/04/03 08:35:47;;;;;;;;;;;;;;;12.19;56.44;100705.06;5029441;28;19925;-92
2024/04/03 08:38:12;;;;;;;;;;;;;;;12.35;57.21;100707.56;5026146;28;20016;-94
2024/04/03 08:40:37;;;;;;;;;;;;;;;12.44;56.84;100704.41;5023876;28;19952;-90
2024/04/03 08:43:03;;;;;;;;;;;;;;;12.51;57.18;100703.09;5026867;28;19917;-89
2024/04/03 08:45:29;;;;;;;;;;;;;;;12.57;56.84;100701.25;5023397;28;20403;-88
2024/04/03 08:47:56;;;;;;;;;;;;;;;12.70;56.50;100711.50;5025756;28;19968;-87
2024/04/03 08:50:23;;;;;;;;;;;;;;;12.70;55.74;100720.38;5026863;28;19925;-92
2024/04/03 08:52:48;;;;;;;;;;;;;;;12.70;55.24;100714.19;5022634;28;20339;-90
2024/04/03 08:55:14;;;;;;;;;;;;;;;12.71;55.80;100723.88;5025149;28;20008;-88
2024/04/03 08:57:40;;;;;;;;;;;;;;;12.75;56.46;100722.28;5029132;28;19917;-89
2024/04/03 09:00:05;;;;;;;;;;;;;;;12.87;56.54;100714.78;5024451;28;19921;-88
2024/04/03 09:02:31;;;;;;;;;;;;;;;12.92;54.40;100717.47;5027069;28;19990;-91
2024/04/03 09:04:56;;;;;;;;;;;;;;;12.92;55.37;100730.13;5042645;28;19987;-89
2024/04/03 09:07:22;;;;;;;;;;;;;;;13.02;56.05;100728.28;5022475;28;19925;-87
2024/04/03 09:09:47;;;;;;;;;;;;;;;13.09;54.95;100729.91;5027279;28;19955;-87
2024/04/03 09:12:13;;;;;;;;;;;;;;;13.10;55.37;100740.41;5028961;28;19956;-88
2024/04/03 09:14:38;;;;;;;;;;;;;;;13.10;55.22;100734.22;5026481;28;19932;-87
2024/04/03 09:17:05;;;;;;;;;;;;;;;13.11;55.48;100735.84;5027475;28;19925;-90
2024/04/03 09:19:32;;;;;;;;;;;;;;;13.20;56.00;100734.28;5027413;28;19917;-89
2024/04/03 09:21:57;;;;;;;;;;;;;;;13.37;55.79;100731.38;5029975;28;19925;-89
2024/04/03 09:24:23;;;;;;;;;;;;;;;13.52;55.67;100721.44;5032827;28;19928;-87
2024/04/03 09:26:51;;;;;;;;;;;;;;;13.65;54.94;100736.25;5027687;28;20501;-90
2024/04/03 09:29:17;;;;;;;;;;;;;;;13.68;54.64;100745.66;5026195;28;19971;-88
2024/04/03 09:31:44;;;;;;;;;;;;;;;13.71;55.05;100745.94;5031178;28;19920;-89
2024/04/03 09:34:10;;;;;;;;;;;;;;;13.68;52.75;100751.06;5031388;28;20007;-89
2024/04/03 09:36:36;;;;;;;;;;;;;;;13.67;53.76;100755.63;5044921;28;20013;-88
2024/04/03 09:39:02;;;;;;;;;;;;;;;13.78;54.53;100761.81;5028370;28;20332;-87
2024/04/03 09:41:29;;;;;;;;;;;;;;;13.84;53.87;100763.44;5030018;28;19921;-88
2024/04/03 09:43:58;;;;;;;;;;;;;;;13.76;52.65;100763.97;5030449;28;19933;-88
2024/04/03 09:46:25;;;;;;;;;;;;;;;13.80;53.93;100763.16;5029337;28;19964;-89
2024/04/03 09:48:51;;;;;;;;;;;;;;;14.04;54.99;100765.34;5030412;28;19925;-88
2024/04/03 09:51:17;;;;;;;;;;;;;;;14.24;54.17;100764.50;5024776;28;19933;-89
2024/04/03 09:53:43;;;;;;;;;;;;;;;14.41;53.48;100770.41;5023080;28;19971;-91
2024/04/03 09:56:09;;;;;;;;;;;;;;;14.60;54.05;100762.56;5031495;28;19995;-90
2024/04/03 09:58:35;;;;;;;;;;;;;;;14.76;53.75;100764.94;5026935;28;20696;-89
2024/04/03 10:01:02;;;;;;;;;;;;;;;14.95;53.03;100762.44;5024254;28;19925;-86
2024/04/03 10:03:28;;;;;;;;;;;;;;;15.05;52.43;100765.06;5023449;28;20161;-86
2024/04/03 10:06:04;;;;;;;;;;;;;;;15.15;52.63;100769.63;5022045;28;19951;-88
2024/04/03 10:08:38;;;;;;;;;;;;;;;15.26;51.74;100773.06;5023015;28;19917;-87
2024/04/03 10:11:05;;;;;;;;;;;;;;;15.20;51.80;100766.09;5028081;28;20862;-85
2024/04/03 10:13:32;;;;;;;;;;;;;;;15.18;51.78;100763.66;5029308;28;20413;-92
2024/04/03 10:16:01;;;;;;;;;;;;;;;15.21;51.76;100767.69;5026005;28;20459;-87
2024/04/03 10:18:27;;;;;;;;;;;;;;;15.16;52.24;100778.53;5026832;28;19932;-90
2024/04/03 10:20:54;;;;;;;;;;;;;;;15.17;52.23;100780.16;5027891;28;19975;-87
2024/04/03 10:23:20;;;;;;;;;;;;;;;15.13;52.29;100771.81;5025065;28;19918;-86
2024/04/03 10:25:45;;;;;;;;;;;;;;;15.10;51.35;100783.97;5025279;28;19944;-87
2024/04/03 10:28:11;;;;;;;;;;;;;;;15.23;52.29;100787.94;5024951;28;20667;-87
2024/04/03 10:30:37;;;;;;;;;;;;;;;15.36;50.17;100786.53;5022456;28;19923;-86
2024/04/03 10:33:04;;;;;;;;;;;;;;;15.37;51.67;100793.53;5037415;28;20018;-87
2024/04/03 10:35:29;;;;;;;;;;;;;;;15.35;51.00;100795.69;5021763;28;19925;-87
2024/04/03 10:38:01;;;;;;;;;;;;;;;15.35;52.34;100788.41;5020872;28;19917;-91
2024/04/03 10:40:27;;;;;;;;;;;;;;;15.43;52.34;100784.31;5025223;28;20015;-92
2024/04/03 10:42:52;;;;;;;;;;;;;;;15.55;52.11;100784.78;5025953;28;20000;-87
2024/04/03 10:45:18;;;;;;;;;;;;;;;15.74;52.63;100774.16;5030080;28;19928;-90
2024/04/03 10:47:44;;;;;;;;;;;;;;;15.97;52.57;100768.00;5027334;28;19932;-89
2024/04/03 10:50:10;;;;;;;;;;;;;;;16.23;51.88;100775.91;5026090;28;19917;-89
2024/04/03 10:52:35;;;;;;;;;;;;;;;16.39;50.66;100771.97;5025763;28;19918;-89
2024/04/03 10:55:02;;;;;;;;;;;;;;;16.57;50.84;100773.13;5027244;28;21135;-89
2024/04/03 10:57:28;;;;;;;;;;;;;;;16.76;51.46;100778.63;5027655;28;19921;-88
2024/04/03 10:59:57;;;;;;;;;;;;;;;16.92;50.47;100780.88;5022893;28;19937;-91
2024/04/03 11:02:22;;;;;;;;;;;;;;;17.07;50.33;100782.59;5030306;28;19921;-89
2024/04/03 11:04:51;;;;;;;;;;;;;;;17.28;50.12;100787.72;5024074;28;19931;-89
2024/04/03 11:07:16;;;;;;;;;;;;;;;17.42;49.98;100784.00;5026460;28;19940;-89
2024/04/03 11:09:41;;;;;;;;;;;;;;;17.45;48.27;100778.00;5024835;28;20515;-89
2024/04/03 11:12:11;;;;;;;;;;;;;;;17.42;50.01;100794.03;5019088;28;20003;-88
2024/04/03 11:14:36;;;;;;;;;;;;;;;17.46;49.98;100789.63;5025938;28;19956;-88
2024/04/03 11:17:04;;;;;;;;;;;;;;;17.58;49.90;100794.59;5042250;28;19952;-91
2024/04/03 11:19:29;;;;;;;;;;;;;;;17.63;48.55;100783.72;5023439;28;20369;-89
2024/04/03 11:21:55;;;;;;;;;;;;;;;17.71;49.85;100786.56;5026206;28;19925;-90
2024/04/03 11:24:20;;;;;;;;;;;;;;;17.85;49.67;100786.63;5020911;28;19921;-90
2024/04/03 11:26:47;;;;;;;;;;;;;;;18.07;49.97;100789.50;5023526;28;20040;-90
2024/04/03 11:29:30;;;;;;;;;;;;;;;18.27;49.03;100782.94;5026680;28;19951;-89
2024/04/03 11:31:56;;;;;;;;;;;;;;;18.38;48.85;100787.09;5022473;28;19925;-90
2024/04/03 11:34:21;;;;;;;;;;;;;;;18.41;49.12;100785.69;5021470;28;19921;-88
2024/04/03 11:36:46;;;;;;;;;;;;;;;18.44;48.70;100793.22;5027603;28;20301;-90
2024/04/03 11:39:15;;;;;;;;;;;;;;;18.38;47.07;100789.78;5025370;28;19925;-89
2024/04/03 11:41:41;;;;;;;;;;;;;;;18.26;47.51;100796.78;5026476;28;19921;-90
2024/04/03 11:44:06;;;;;;;;;;;;;;;18.16;48.55;100803.22;5026294;28;19923;-88
2024/04/03 11:46:32;;;;;;;;;;;;;;;18.09;47.54;100803.56;5020610;28;20395;-89
2024/04/03 11:48:59;;;;;;;;;;;;;;;18.09;48.20;100803.56;5026001;28;19932;-88
2024/04/03 11:51:25;;;;;;;;;;;;;;;18.09;47.67;100802.78;5021402;28;19971;-89
2024/04/03 11:53:51;;;;;;;;;;;;;;;18.14;48.27;100805.41;5024917;28;19956;-89
2024/04/03 11:56:17;;;;;;;;;;;;;;;18.25;48.62;100806.84;5023659;28;19924;-89
2024/04/03 11:58:45;;;;;;;;;;;;;;;18.32;46.75;100804.56;5027010;28;20331;-88
2024/04/03 12:01:11;;;;;;;;;;;;;;;18.39;47.30;100802.25;5021675;28;19926;-88
2024/04/03 12:03:36;;;;;;;;;;;;;;;18.45;47.38;100805.66;5038233;28;20651;-88
2024/04/03 12:06:02;;;;;;;;;;;;;;;18.64;46.82;100806.44;5022167;28;19921;-88
2024/04/03 12:08:27;;;;;;;;;;;;;;;18.78;47.43;100809.16;5020627;28;19956;-88
2024/04/03 12:10:52;;;;;;;;;;;;;;;18.93;46.87;100817.00;5026974;28;19917;-88
2024/04/03 12:13:18;;;;;;;;;;;;;;;19.06;46.62;100803.72;5040778;28;19929;-88
2024/04/03 12:15:47;;;;;;;;;;;;;;;19.16;46.02;100815.16;5024723;28;19921;-88
2024/04/03 12:18:12;;;;;;;;;;;;;;;19.26;45.55;100816.88;5022745;28;19982;-88
2024/04/03 12:20:40;;;;;;;;;;;;;;;19.27;45.46;100815.78;5023935;28;19925;-89
2024/04/03 12:23:05;;;;;;;;;;;;;;;19.26;46.29;100803.31;5020820;28;19921;-88
2024/04/03 12:25:31;;;;;;;;;;;;;;;19.31;45.93;100805.91;5025307;28;19921;-91
2024/04/03 12:27:56;;;;;;;;;;;;;;;19.30;45.88;100809.72;5027924;28;20515;-91
2024/04/03 12:30:21;;;;;;;;;;;;;;;19.26;44.61;100811.44;5024196;28;19925;-90